Harnell Park, Minnesota
Current Conditions -  °F | °C
As of 3:55 AM on Thursday 23 Oct 2014 (Local Time) from KDLH Reporting Station
Light Rain Light Rain  
Wind Chill: 51°   Ceiling: 2300
Heat Index: 51°   Visibility: 10mi
Dew Point: 39°   Wind: 8mph
Humidity: 63%   Direction: 170°S
Pressure: 29.96"   Gusts: NA
Location:  46.8859°N, 92.4258°W
Report Text: KDLH 230855Z 17007KT 10SM -RA OVC023 11/04 A2996 RMK AO2 RAB48 SLP154 P0000 60000 T01060039 56009
Loading
Personal Weather Stations






























Interactive Weather Map
Tropical Storm Tracking
New forecast layout! Learn more

10-Day Weather Forecast

Advertisements
Track Severe Weather on mobile